Noorvik, Alaska
Current Conditions -  °F | °C
As of 8:58 AM on Wednesday 26 Nov 2014 (Local Time) from PFNO Reporting Station
Clear Clear  
Wind Chill: -16°   Ceiling: Unl
Heat Index:   Visibility: 10mi
Dew Point:   Wind: 22mph
Humidity: 87%   Direction: 70°ENE
Pressure: 30.45"   Gusts: 30mph
Location:  66.84°N, 161.04°W
Report Text: PFNO 261758Z AUTO 07019G26KT 10SM CLR M15/M17 A3045 RMK AO2 PK WND 06026/1754 SLP312 T11501167 11150 21167 53001 FZRANO
Loading
Personal Weather Stations






























Interactive Weather Map New forecast layout! Learn more

10-Day Weather Forecast

Advertisements
Track Severe Weather on mobile